sensor_id;sensor_type;location;lat;lon;timestamp;temperature;humidity
26342;DHT22;14054;50.108;8.640;2022-09-28T00:00:26;9.10;99.90
26342;DHT22;14054;50.108;8.640;2022-09-28T00:02:53;9.10;99.90
26342;DHT22;14054;50.108;8.640;2022-09-28T00:05:20;9.10;99.90
26342;DHT22;14054;50.108;8.640;2022-09-28T00:07:45;9.10;99.90
26342;DHT22;14054;50.108;8.640;2022-09-28T00:10:11;9.10;99.90
26342;DHT22;14054;50.108;8.640;2022-09-28T00:12:36;9.10;99.90
26342;DHT22;14054;50.108;8.640;2022-09-28T00:15:02;9.10;99.90
26342;DHT22;14054;50.108;8.640;2022-09-28T00:17:28;9.00;99.90
26342;DHT22;14054;50.108;8.640;2022-09-28T00:19:54;9.00;99.90
26342;DHT22;14054;50.108;8.640;2022-09-28T00:22:20;9.00;99.90
26342;DHT22;14054;50.108;8.640;2022-09-28T00:24:45;9.00;99.90
26342;DHT22;14054;50.108;8.640;2022-09-28T00:27:11;9.00;99.90
26342;DHT22;14054;50.108;8.640;2022-09-28T00:29:37;8.90;99.90
26342;DHT22;14054;50.108;8.640;2022-09-28T00:34:29;8.90;99.90
26342;DHT22;14054;50.108;8.640;2022-09-28T00:36:57;8.90;99.90
26342;DHT22;14054;50.108;8.640;2022-09-28T00:39:23;8.90;99.90
26342;DHT22;14054;50.108;8.640;2022-09-28T00:41:48;8.90;99.90
26342;DHT22;14054;50.108;8.640;2022-09-28T00:46:49;9.00;99.90
26342;DHT22;14054;50.108;8.640;2022-09-28T00:49:16;9.00;99.90
26342;DHT22;14054;50.108;8.640;2022-09-28T00:51:43;9.00;99.90
26342;DHT22;14054;50.108;8.640;2022-09-28T00:54:09;9.00;99.90
26342;DHT22;14054;50.108;8.640;2022-09-28T00:56:36;9.00;99.90
26342;DHT22;14054;50.108;8.640;2022-09-28T00:59:02;9.00;99.90
26342;DHT22;14054;50.108;8.640;2022-09-28T01:01:28;8.90;99.90
26342;DHT22;14054;50.108;8.640;2022-09-28T01:03:54;9.00;99.90
26342;DHT22;14054;50.108;8.640;2022-09-28T01:06:23;9.00;99.90
26342;DHT22;14054;50.108;8.640;2022-09-28T01:08:52;9.00;99.90
26342;DHT22;14054;50.108;8.640;2022-09-28T01:11:19;9.00;99.90
26342;DHT22;14054;50.108;8.640;2022-09-28T01:13:45;9.00;99.90
26342;DHT22;14054;50.108;8.640;2022-09-28T01:16:23;9.00;99.90
26342;DHT22;14054;50.108;8.640;2022-09-28T01:21:25;9.00;99.90
26342;DHT22;14054;50.108;8.640;2022-09-28T01:31:51;9.10;99.90
26342;DHT22;14054;50.108;8.640;2022-09-28T01:34:25;9.10;99.90
26342;DHT22;14054;50.108;8.640;2022-09-28T01:36:54;9.10;99.90
26342;DHT22;14054;50.108;8.640;2022-09-28T01:39:22;9.10;99.90
26342;DHT22;14054;50.108;8.640;2022-09-28T01:41:49;9.10;99.90
26342;DHT22;14054;50.108;8.640;2022-09-28T01:44:16;9.10;99.90
26342;DHT22;14054;50.108;8.640;2022-09-28T01:46:44;9.20;99.90
26342;DHT22;14054;50.108;8.640;2022-09-28T01:49:11;9.20;99.90
26342;DHT22;14054;50.108;8.640;2022-09-28T01:51:41;9.20;99.90
26342;DHT22;14054;50.108;8.640;2022-09-28T01:54:18;9.20;99.90
26342;DHT22;14054;50.108;8.640;2022-09-28T01:56:47;9.20;99.90
26342;DHT22;14054;50.108;8.640;2022-09-28T01:59:15;9.20;99.90
26342;DHT22;14054;50.108;8.640;2022-09-28T02:01:51;9.30;99.90
26342;DHT22;14054;50.108;8.640;2022-09-28T02:04:37;9.30;99.90
26342;DHT22;14054;50.108;8.640;2022-09-28T02:07:09;9.30;99.90
26342;DHT22;14054;50.108;8.640;2022-09-28T02:09:37;9.30;99.90
26342;DHT22;14054;50.108;8.640;2022-09-28T02:12:07;9.30;99.90
26342;DHT22;14054;50.108;8.640;2022-09-28T02:14:35;9.30;99.90
26342;DHT22;14054;50.108;8.640;2022-09-28T02:17:01;9.30;99.90
26342;DHT22;14054;50.108;8.640;2022-09-28T02:19:27;9.30;99.90
26342;DHT22;14054;50.108;8.640;2022-09-28T02:22:12;9.30;99.90
26342;DHT22;14054;50.108;8.640;2022-09-28T02:24:44;9.40;99.90
26342;DHT22;14054;50.108;8.640;2022-09-28T02:27:13;9.40;99.90
26342;DHT22;14054;50.108;8.640;2022-09-28T02:29:39;9.30;99.90
26342;DHT22;14054;50.108;8.640;2022-09-28T02:32:04;9.30;99.90
26342;DHT22;14054;50.108;8.640;2022-09-28T02:34:30;9.30;99.90
26342;DHT22;14054;50.108;8.640;2022-09-28T02:36:55;9.20;99.90
26342;DHT22;14054;50.108;8.640;2022-09-28T02:39:21;9.20;99.90
26342;DHT22;14054;50.108;8.640;2022-09-28T02:57:57;9.00;99.90
26342;DHT22;14054;50.108;8.640;2022-09-28T03:00:26;8.90;99.90
26342;DHT22;14054;50.108;8.640;2022-09-28T03:03:02;8.90;99.90
26342;DHT22;14054;50.108;8.640;2022-09-28T03:08:17;8.90;99.90
26342;DHT22;14054;50.108;8.640;2022-09-28T03:10:48;8.90;99.90
26342;DHT22;14054;50.108;8.640;2022-09-28T03:13:16;8.90;99.90
26342;DHT22;14054;50.108;8.640;2022-09-28T03:15:42;8.80;99.90
26342;DHT22;14054;50.108;8.640;2022-09-28T03:18:08;8.90;99.90
26342;DHT22;14054;50.108;8.640;2022-09-28T03:20:34;8.90;99.90
26342;DHT22;14054;50.108;8.640;2022-09-28T03:22:59;8.90;99.90
26342;DHT22;14054;50.108;8.640;2022-09-28T03:25:25;8.90;99.90
26342;DHT22;14054;50.108;8.640;2022-09-28T03:27:51;8.80;99.90
26342;DHT22;14054;50.108;8.640;2022-09-28T03:30:16;8.80;99.90
26342;DHT22;14054;50.108;8.640;2022-09-28T03:32:42;8.80;99.90
26342;DHT22;14054;50.108;8.640;2022-09-28T03:35:07;8.80;99.90
26342;DHT22;14054;50.108;8.640;2022-09-28T03:37:33;8.80;99.90
26342;DHT22;14054;50.108;8.640;2022-09-28T03:39:59;8.80;99.90
26342;DHT22;14054;50.108;8.640;2022-09-28T03:42:24;8.70;99.90
26342;DHT22;14054;50.108;8.640;2022-09-28T03:44:50;8.80;99.90
26342;DHT22;14054;50.108;8.640;2022-09-28T03:47:15;8.80;99.90
26342;DHT22;14054;50.108;8.640;2022-09-28T03:49:42;8.80;99.90
26342;DHT22;14054;50.108;8.640;2022-09-28T03:52:07;8.70;99.90
26342;DHT22;14054;50.108;8.640;2022-09-28T03:54:33;8.70;99.90
26342;DHT22;14054;50.108;8.640;2022-09-28T03:56:58;8.70;99.90
26342;DHT22;14054;50.108;8.640;2022-09-28T03:59:24;8.70;99.90
26342;DHT22;14054;50.108;8.640;2022-09-28T04:01:50;8.60;99.90
26342;DHT22;14054;50.108;8.640;2022-09-28T04:04:15;8.70;99.90
26342;DHT22;14054;50.108;8.640;2022-09-28T04:06:41;8.70;99.90
26342;DHT22;14054;50.108;8.640;2022-09-28T04:09:07;8.70;99.90
26342;DHT22;14054;50.108;8.640;2022-09-28T04:11:32;8.70;99.90
26342;DHT22;14054;50.108;8.640;2022-09-28T04:13:58;8.70;99.90
26342;DHT22;14054;50.108;8.640;2022-09-28T04:16:23;8.70;99.90
26342;DHT22;14054;50.108;8.640;2022-09-28T04:18:49;8.70;99.90
26342;DHT22;14054;50.108;8.640;2022-09-28T04:21:16;8.60;99.90
26342;DHT22;14054;50.108;8.640;2022-09-28T04:23:41;8.60;99.90
26342;DHT22;14054;50.108;8.640;2022-09-28T04:26:10;8.60;99.90
26342;DHT22;14054;50.108;8.640;2022-09-28T04:28:36;8.60;99.90
26342;DHT22;14054;50.108;8.640;2022-09-28T04:31:21;8.70;99.90
26342;DHT22;14054;50.108;8.640;2022-09-28T04:33:47;8.70;99.90
26342;DHT22;14054;50.108;8.640;2022-09-28T04:36:12;8.70;99.90
26342;DHT22;14054;50.108;8.640;2022-09-28T04:38:38;8.70;99.90
26342;DHT22;14054;50.108;8.640;2022-09-28T04:41:04;8.70;99.90
26342;DHT22;14054;50.108;8.640;2022-09-28T04:43:30;8.70;99.90
26342;DHT22;14054;50.108;8.640;2022-09-28T04:45:56;8.80;99.90
26342;DHT22;14054;50.108;8.640;2022-09-28T04:48:22;8.80;99.90
26342;DHT22;14054;50.108;8.640;2022-09-28T04:50:54;8.80;99.90
26342;DHT22;14054;50.108;8.640;2022-09-28T04:53:20;8.80;99.90
26342;DHT22;14054;50.108;8.640;2022-09-28T04:55:53;8.70;99.90
26342;DHT22;14054;50.108;8.640;2022-09-28T04:58:19;8.70;99.90
26342;DHT22;14054;50.108;8.640;2022-09-28T05:00:44;8.70;99.90
26342;DHT22;14054;50.108;8.640;2022-09-28T05:03:10;8.70;99.90
26342;DHT22;14054;50.108;8.640;2022-09-28T05:05:35;8.80;99.90
26342;DHT22;14054;50.108;8.640;2022-09-28T05:08:01;8.70;99.90
26342;DHT22;14054;50.108;8.640;2022-09-28T05:10:26;8.70;99.90
26342;DHT22;14054;50.108;8.640;2022-09-28T05:12:51;8.70;99.90
26342;DHT22;14054;50.108;8.640;2022-09-28T05:15:17;8.70;99.90
26342;DHT22;14054;50.108;8.640;2022-09-28T05:17:42;8.70;99.90
26342;DHT22;14054;50.108;8.640;2022-09-28T05:20:08;8.70;99.90
26342;DHT22;14054;50.108;8.640;2022-09-28T05:22:33;8.70;99.90
26342;DHT22;14054;50.108;8.640;2022-09-28T05:24:59;8.70;99.90
26342;DHT22;14054;50.108;8.640;2022-09-28T05:27:24;8.60;99.90
26342;DHT22;14054;50.108;8.640;2022-09-28T05:29:50;8.70;99.90
26342;DHT22;14054;50.108;8.640;2022-09-28T05:32:15;8.60;99.90
26342;DHT22;14054;50.108;8.640;2022-09-28T05:34:41;8.70;99.90
26342;DHT22;14054;50.108;8.640;2022-09-28T05:37:06;8.70;99.90
26342;DHT22;14054;50.108;8.640;2022-09-28T05:39:31;8.60;99.90
26342;DHT22;14054;50.108;8.640;2022-09-28T05:41:57;8.60;99.90
26342;DHT22;14054;50.108;8.640;2022-09-28T05:44:22;8.60;99.90
26342;DHT22;14054;50.108;8.640;2022-09-28T05:46:48;8.60;99.90
26342;DHT22;14054;50.108;8.640;2022-09-28T05:49:14;8.70;99.90
26342;DHT22;14054;50.108;8.640;2022-09-28T05:51:40;8.60;99.90
26342;DHT22;14054;50.108;8.640;2022-09-28T05:54:06;8.70;99.90
26342;DHT22;14054;50.108;8.640;2022-09-28T05:56:32;8.60;99.90
26342;DHT22;14054;50.108;8.640;2022-09-28T05:58:58;8.60;99.90
26342;DHT22;14054;50.108;8.640;2022-09-28T06:01:24;8.60;99.90
26342;DHT22;14054;50.108;8.640;2022-09-28T06:03:50;8.60;99.90
26342;DHT22;14054;50.108;8.640;2022-09-28T06:06:15;8.60;99.90
26342;DHT22;14054;50.108;8.640;2022-09-28T06:08:40;8.60;99.90
26342;DHT22;14054;50.108;8.640;2022-09-28T06:11:08;8.60;99.90
26342;DHT22;14054;50.108;8.640;2022-09-28T06:13:36;8.60;99.90
26342;DHT22;14054;50.108;8.640;2022-09-28T06:16:02;8.60;99.90
26342;DHT22;14054;50.108;8.640;2022-09-28T06:18:29;8.60;99.90
26342;DHT22;14054;50.108;8.640;2022-09-28T06:20:54;8.60;99.90
26342;DHT22;14054;50.108;8.640;2022-09-28T06:23:19;8.60;99.90
26342;DHT22;14054;50.108;8.640;2022-09-28T06:25:45;8.60;99.90
26342;DHT22;14054;50.108;8.640;2022-09-28T06:28:11;8.70;99.90
26342;DHT22;14054;50.108;8.640;2022-09-28T06:30:37;8.80;99.90
26342;DHT22;14054;50.108;8.640;2022-09-28T06:33:03;8.90;99.90
26342;DHT22;14054;50.108;8.640;2022-09-28T06:35:29;9.00;99.90
26342;DHT22;14054;50.108;8.640;2022-09-28T06:37:55;9.10;99.90
26342;DHT22;14054;50.108;8.640;2022-09-28T06:40:21;9.20;99.90
26342;DHT22;14054;50.108;8.640;2022-09-28T06:42:56;9.40;99.90
26342;DHT22;14054;50.108;8.640;2022-09-28T06:45:23;9.50;99.90
26342;DHT22;14054;50.108;8.640;2022-09-28T06:47:53;9.70;99.90
26342;DHT22;14054;50.108;8.640;2022-09-28T06:50:19;9.80;99.90
26342;DHT22;14054;50.108;8.640;2022-09-28T06:52:44;9.80;99.90
26342;DHT22;14054;50.108;8.640;2022-09-28T06:55:09;9.80;99.90
26342;DHT22;14054;50.108;8.640;2022-09-28T06:57:35;9.70;99.90
26342;DHT22;14054;50.108;8.640;2022-09-28T07:00:00;9.80;99.90
26342;DHT22;14054;50.108;8.640;2022-09-28T07:02:26;9.80;99.90
26342;DHT22;14054;50.108;8.640;2022-09-28T07:04:51;9.80;99.90
26342;DHT22;14054;50.108;8.640;2022-09-28T07:07:16;9.90;99.90
26342;DHT22;14054;50.108;8.640;2022-09-28T07:09:42;9.90;99.90
26342;DHT22;14054;50.108;8.640;2022-09-28T07:12:07;10.30;99.90
26342;DHT22;14054;50.108;8.640;2022-09-28T07:14:37;11.00;99.90
26342;DHT22;14054;50.108;8.640;2022-09-28T07:17:03;11.40;99.90
26342;DHT22;14054;50.108;8.640;2022-09-28T07:19:32;11.40;99.90
26342;DHT22;14054;50.108;8.640;2022-09-28T07:21:58;11.10;99.90
26342;DHT22;14054;50.108;8.640;2022-09-28T07:24:24;11.10;99.90
26342;DHT22;14054;50.108;8.640;2022-09-28T07:26:49;11.10;99.90
26342;DHT22;14054;50.108;8.640;2022-09-28T07:29:15;10.70;99.90
26342;DHT22;14054;50.108;8.640;2022-09-28T07:31:41;10.70;99.90
26342;DHT22;14054;50.108;8.640;2022-09-28T07:34:06;10.50;99.90
26342;DHT22;14054;50.108;8.640;2022-09-28T07:36:31;10.50;99.90
26342;DHT22;14054;50.108;8.640;2022-09-28T07:39:00;10.60;99.90
26342;DHT22;14054;50.108;8.640;2022-09-28T07:41:25;10.60;99.90
26342;DHT22;14054;50.108;8.640;2022-09-28T07:44:00;10.60;99.90
26342;DHT22;14054;50.108;8.640;2022-09-28T07:46:33;10.60;99.90
26342;DHT22;14054;50.108;8.640;2022-09-28T07:48:59;10.70;99.90
26342;DHT22;14054;50.108;8.640;2022-09-28T07:51:24;10.60;99.90
26342;DHT22;14054;50.108;8.640;2022-09-28T07:53:50;10.60;99.90
26342;DHT22;14054;50.108;8.640;2022-09-28T07:56:18;10.50;99.90
26342;DHT22;14054;50.108;8.640;2022-09-28T07:58:45;10.50;99.90
26342;DHT22;14054;50.108;8.640;2022-09-28T08:01:10;10.60;99.90
26342;DHT22;14054;50.108;8.640;2022-09-28T08:03:39;11.00;99.90
26342;DHT22;14054;50.108;8.640;2022-09-28T08:06:05;11.90;99.90
26342;DHT22;14054;50.108;8.640;2022-09-28T08:08:34;11.50;99.90
26342;DHT22;14054;50.108;8.640;2022-09-28T08:11:00;11.20;99.90
26342;DHT22;14054;50.108;8.640;2022-09-28T08:13:25;11.30;99.90
26342;DHT22;14054;50.108;8.640;2022-09-28T08:15:54;11.50;99.90
26342;DHT22;14054;50.108;8.640;2022-09-28T08:18:19;11.60;99.90
26342;DHT22;14054;50.108;8.640;2022-09-28T08:20:45;11.60;99.90
26342;DHT22;14054;50.108;8.640;2022-09-28T08:23:29;11.70;99.90
26342;DHT22;14054;50.108;8.640;2022-09-28T08:25:54;11.60;99.90
26342;DHT22;14054;50.108;8.640;2022-09-28T08:28:21;11.50;99.90
26342;DHT22;14054;50.108;8.640;2022-09-28T08:30:46;11.50;99.90
26342;DHT22;14054;50.108;8.640;2022-09-28T08:33:13;11.40;99.90
26342;DHT22;14054;50.108;8.640;2022-09-28T08:35:39;11.30;99.90
26342;DHT22;14054;50.108;8.640;2022-09-28T08:38:07;11.50;99.90
26342;DHT22;14054;50.108;8.640;2022-09-28T08:40:58;11.40;99.90
26342;DHT22;14054;50.108;8.640;2022-09-28T08:43:31;11.40;99.90
26342;DHT22;14054;50.108;8.640;2022-09-28T08:46:03;11.50;99.90
26342;DHT22;14054;50.108;8.640;2022-09-28T08:48:30;11.50;99.90
26342;DHT22;14054;50.108;8.640;2022-09-28T08:51:18;11.60;99.90
26342;DHT22;14054;50.108;8.640;2022-09-28T08:53:49;11.60;99.90
26342;DHT22;14054;50.108;8.640;2022-09-28T08:59:05;11.70;99.90
26342;DHT22;14054;50.108;8.640;2022-09-28T09:01:37;11.60;99.90
26342;DHT22;14054;50.108;8.640;2022-09-28T09:04:05;11.60;99.90
26342;DHT22;14054;50.108;8.640;2022-09-28T09:09:15;11.50;99.90
26342;DHT22;14054;50.108;8.640;2022-09-28T09:11:52;11.30;99.90
26342;DHT22;14054;50.108;8.640;2022-09-28T09:16:59;11.30;99.90
26342;DHT22;14054;50.108;8.640;2022-09-28T09:19:39;11.50;99.90
26342;DHT22;14054;50.108;8.640;2022-09-28T09:24:50;12.10;99.90
26342;DHT22;14054;50.108;8.640;2022-09-28T09:29:54;12.60;99.90
26342;DHT22;14054;50.108;8.640;2022-09-28T09:38:05;13.10;99.90
26342;DHT22;14054;50.108;8.640;2022-09-28T09:45:59;13.20;99.90
26342;DHT22;14054;50.108;8.640;2022-09-28T09:48:30;13.10;99.90
26342;DHT22;14054;50.108;8.640;2022-09-28T09:50:59;13.30;99.90
26342;DHT22;14054;50.108;8.640;2022-09-28T09:53:28;13.50;99.90
26342;DHT22;14054;50.108;8.640;2022-09-28T09:55:55;13.30;99.90
26342;DHT22;14054;50.108;8.640;2022-09-28T09:58:27;13.10;99.90
26342;DHT22;14054;50.108;8.640;2022-09-28T10:00:54;12.90;99.90
26342;DHT22;14054;50.108;8.640;2022-09-28T10:03:24;12.60;99.90
26342;DHT22;14054;50.108;8.640;2022-09-28T10:05:58;12.30;99.90
26342;DHT22;14054;50.108;8.640;2022-09-28T10:08:24;12.20;99.90
26342;DHT22;14054;50.108;8.640;2022-09-28T10:11:07;12.20;99.90
26342;DHT22;14054;50.108;8.640;2022-09-28T10:13:34;12.10;99.90
26342;DHT22;14054;50.108;8.640;2022-09-28T10:16:00;12.20;99.90
26342;DHT22;14054;50.108;8.640;2022-09-28T10:18:25;12.30;99.90
26342;DHT22;14054;50.108;8.640;2022-09-28T10:20:51;12.30;99.90
26342;DHT22;14054;50.108;8.640;2022-09-28T10:23:21;12.50;99.90
26342;DHT22;14054;50.108;8.640;2022-09-28T10:25:49;12.50;99.90
26342;DHT22;14054;50.108;8.640;2022-09-28T10:28:17;12.60;99.90
26342;DHT22;14054;50.108;8.640;2022-09-28T10:30:44;12.70;99.90
26342;DHT22;14054;50.108;8.640;2022-09-28T10:35:54;13.10;99.90
26342;DHT22;14054;50.108;8.640;2022-09-28T10:38:19;13.30;99.90
26342;DHT22;14054;50.108;8.640;2022-09-28T10:40:50;13.50;99.90
26342;DHT22;14054;50.108;8.640;2022-09-28T10:43:25;13.30;99.90
26342;DHT22;14054;50.108;8.640;2022-09-28T10:46:02;13.40;99.90
26342;DHT22;14054;50.108;8.640;2022-09-28T10:48:30;13.50;99.90
26342;DHT22;14054;50.108;8.640;2022-09-28T10:51:05;13.60;99.90
26342;DHT22;14054;50.108;8.640;2022-09-28T10:53:31;13.80;99.90
26342;DHT22;14054;50.108;8.640;2022-09-28T10:56:00;14.50;99.90
26342;DHT22;14054;50.108;8.640;2022-09-28T10:58:35;15.10;99.90
26342;DHT22;14054;50.108;8.640;2022-09-28T11:01:03;15.70;99.90
26342;DHT22;14054;50.108;8.640;2022-09-28T11:03:30;15.20;99.90
26342;DHT22;14054;50.108;8.640;2022-09-28T11:05:57;14.20;99.90
26342;DHT22;14054;50.108;8.640;2022-09-28T11:08:24;13.80;99.90
26342;DHT22;14054;50.108;8.640;2022-09-28T11:11:03;13.70;99.90
26342;DHT22;14054;50.108;8.640;2022-09-28T11:13:29;13.80;99.90
26342;DHT22;14054;50.108;8.640;2022-09-28T11:15:55;13.80;99.90
26342;DHT22;14054;50.108;8.640;2022-09-28T11:18:25;13.80;99.90
26342;DHT22;14054;50.108;8.640;2022-09-28T11:20:55;14.30;99.90
26342;DHT22;14054;50.108;8.640;2022-09-28T11:23:30;15.10;99.90
26342;DHT22;14054;50.108;8.640;2022-09-28T11:26:05;16.00;99.90
26342;DHT22;14054;50.108;8.640;2022-09-28T11:28:33;15.70;99.90
26342;DHT22;14054;50.108;8.640;2022-09-28T11:30:59;15.50;99.90
26342;DHT22;14054;50.108;8.640;2022-09-28T11:36:06;15.20;99.90
26342;DHT22;14054;50.108;8.640;2022-09-28T11:38:38;15.10;99.90
26342;DHT22;14054;50.108;8.640;2022-09-28T11:43:39;15.00;99.90
26342;DHT22;14054;50.108;8.640;2022-09-28T11:48:46;15.00;99.90
26342;DHT22;14054;50.108;8.640;2022-09-28T11:51:14;14.80;99.90
26342;DHT22;14054;50.108;8.640;2022-09-28T11:53:49;14.60;99.90
26342;DHT22;14054;50.108;8.640;2022-09-28T11:58:45;14.60;99.90
26342;DHT22;14054;50.108;8.640;2022-09-28T12:01:20;14.60;99.90
26342;DHT22;14054;50.108;8.640;2022-09-28T12:03:52;14.50;99.90
26342;DHT22;14054;50.108;8.640;2022-09-28T12:06:24;14.50;99.90
26342;DHT22;14054;50.108;8.640;2022-09-28T12:08:53;14.50;99.90
26342;DHT22;14054;50.108;8.640;2022-09-28T12:11:20;14.60;99.90
26342;DHT22;14054;50.108;8.640;2022-09-28T12:13:49;15.00;99.90
26342;DHT22;14054;50.108;8.640;2022-09-28T12:16:20;17.30;99.90
26342;DHT22;14054;50.108;8.640;2022-09-28T12:18:58;19.20;96.90
26342;DHT22;14054;50.108;8.640;2022-09-28T12:21:27;17.80;98.70
26342;DHT22;14054;50.108;8.640;2022-09-28T12:24:17;16.80;99.90
26342;DHT22;14054;50.108;8.640;2022-09-28T12:26:43;16.50;99.90
26342;DHT22;14054;50.108;8.640;2022-09-28T12:29:15;17.40;99.90
26342;DHT22;14054;50.108;8.640;2022-09-28T12:34:16;19.90;90.70
26342;DHT22;14054;50.108;8.640;2022-09-28T12:36:48;18.80;92.10
26342;DHT22;14054;50.108;8.640;2022-09-28T12:39:23;17.60;95.30
26342;DHT22;14054;50.108;8.640;2022-09-28T12:47:27;16.00;99.90
26342;DHT22;14054;50.108;8.640;2022-09-28T12:50:05;15.60;99.90
26342;DHT22;14054;50.108;8.640;2022-09-28T12:57:53;14.90;99.90
26342;DHT22;14054;50.108;8.640;2022-09-28T13:00:21;14.80;99.90
26342;DHT22;14054;50.108;8.640;2022-09-28T13:10:29;15.20;99.90
26342;DHT22;14054;50.108;8.640;2022-09-28T13:18:12;15.50;99.90
26342;DHT22;14054;50.108;8.640;2022-09-28T13:20:47;15.60;99.90
26342;DHT22;14054;50.108;8.640;2022-09-28T13:23:21;16.20;99.90
26342;DHT22;14054;50.108;8.640;2022-09-28T13:28:31;15.40;99.90
26342;DHT22;14054;50.108;8.640;2022-09-28T13:30:58;15.10;99.90
26342;DHT22;14054;50.108;8.640;2022-09-28T13:33:29;14.90;99.90
26342;DHT22;14054;50.108;8.640;2022-09-28T13:35:57;14.70;99.90
26342;DHT22;14054;50.108;8.640;2022-09-28T13:46:03;15.00;99.90
26342;DHT22;14054;50.108;8.640;2022-09-28T13:48:45;15.70;99.90
26342;DHT22;14054;50.108;8.640;2022-09-28T13:51:23;15.80;99.90
26342;DHT22;14054;50.108;8.640;2022-09-28T13:53:57;15.70;99.90
26342;DHT22;14054;50.108;8.640;2022-09-28T13:59:14;15.30;99.90
26342;DHT22;14054;50.108;8.640;2022-09-28T14:04:55;15.30;99.90
26342;DHT22;14054;50.108;8.640;2022-09-28T14:10:19;15.20;99.90
26342;DHT22;14054;50.108;8.640;2022-09-28T14:12:48;15.10;99.90
26342;DHT22;14054;50.108;8.640;2022-09-28T14:17:56;14.90;99.90
26342;DHT22;14054;50.108;8.640;2022-09-28T14:20:23;14.80;99.90
26342;DHT22;14054;50.108;8.640;2022-09-28T14:25:20;14.90;99.90
26342;DHT22;14054;50.108;8.640;2022-09-28T14:28:11;14.90;99.90
26342;DHT22;14054;50.108;8.640;2022-09-28T14:36:04;14.70;99.90
26342;DHT22;14054;50.108;8.640;2022-09-28T14:38:31;14.40;99.90
26342;DHT22;14054;50.108;8.640;2022-09-28T14:41:27;14.40;99.90
26342;DHT22;14054;50.108;8.640;2022-09-28T14:43:56;14.40;99.90
26342;DHT22;14054;50.108;8.640;2022-09-28T14:46:32;14.30;99.90
26342;DHT22;14054;50.108;8.640;2022-09-28T14:49:03;14.30;99.90
26342;DHT22;14054;50.108;8.640;2022-09-28T14:56:26;13.80;99.90
26342;DHT22;14054;50.108;8.640;2022-09-28T14:58:52;13.70;99.90
26342;DHT22;14054;50.108;8.640;2022-09-28T15:01:19;13.60;99.90
26342;DHT22;14054;50.108;8.640;2022-09-28T15:03:45;13.60;99.90
26342;DHT22;14054;50.108;8.640;2022-09-28T15:06:15;13.70;99.90
26342;DHT22;14054;50.108;8.640;2022-09-28T15:08:41;13.90;99.90
26342;DHT22;14054;50.108;8.640;2022-09-28T15:11:20;14.10;99.90
26342;DHT22;14054;50.108;8.640;2022-09-28T15:13:46;14.10;99.90
26342;DHT22;14054;50.108;8.640;2022-09-28T15:16:13;14.00;99.90
26342;DHT22;14054;50.108;8.640;2022-09-28T15:21:09;13.90;99.90
26342;DHT22;14054;50.108;8.640;2022-09-28T15:23:36;13.70;99.90
26342;DHT22;14054;50.108;8.640;2022-09-28T15:26:02;13.60;99.90
26342;DHT22;14054;50.108;8.640;2022-09-28T15:28:28;13.50;99.90
26342;DHT22;14054;50.108;8.640;2022-09-28T15:31:03;13.60;99.90
26342;DHT22;14054;50.108;8.640;2022-09-28T15:36:17;13.70;99.90
26342;DHT22;14054;50.108;8.640;2022-09-28T15:38:52;13.80;99.90
26342;DHT22;14054;50.108;8.640;2022-09-28T15:41:19;13.70;99.90
26342;DHT22;14054;50.108;8.640;2022-09-28T15:44:02;13.60;99.90
26342;DHT22;14054;50.108;8.640;2022-09-28T15:46:31;13.50;99.90
26342;DHT22;14054;50.108;8.640;2022-09-28T15:48:59;13.50;99.90
26342;DHT22;14054;50.108;8.640;2022-09-28T15:51:26;13.40;99.90
26342;DHT22;14054;50.108;8.640;2022-09-28T15:53:56;13.40;99.90
26342;DHT22;14054;50.108;8.640;2022-09-28T15:56:22;13.40;99.90
26342;DHT22;14054;50.108;8.640;2022-09-28T15:59:06;13.30;99.90
26342;DHT22;14054;50.108;8.640;2022-09-28T16:01:36;13.30;99.90
26342;DHT22;14054;50.108;8.640;2022-09-28T16:07:03;13.30;99.90
26342;DHT22;14054;50.108;8.640;2022-09-28T16:09:31;13.30;99.90
26342;DHT22;14054;50.108;8.640;2022-09-28T16:12:02;13.20;99.90
26342;DHT22;14054;50.108;8.640;2022-09-28T16:14:33;13.30;99.90
26342;DHT22;14054;50.108;8.640;2022-09-28T16:16:58;13.20;99.90
26342;DHT22;14054;50.108;8.640;2022-09-28T16:19:24;13.20;99.90
26342;DHT22;14054;50.108;8.640;2022-09-28T16:21:56;13.10;99.90
26342;DHT22;14054;50.108;8.640;2022-09-28T16:24:22;13.10;99.90
26342;DHT22;14054;50.108;8.640;2022-09-28T16:26:53;13.10;99.90
26342;DHT22;14054;50.108;8.640;2022-09-28T16:29:35;13.00;99.90
26342;DHT22;14054;50.108;8.640;2022-09-28T16:34:48;12.90;99.90
26342;DHT22;14054;50.108;8.640;2022-09-28T16:37:28;12.90;99.90
26342;DHT22;14054;50.108;8.640;2022-09-28T16:39:55;12.80;99.90
26342;DHT22;14054;50.108;8.640;2022-09-28T16:42:26;12.70;99.90
26342;DHT22;14054;50.108;8.640;2022-09-28T16:44:51;12.70;99.90
26342;DHT22;14054;50.108;8.640;2022-09-28T16:47:23;12.70;99.90
26342;DHT22;14054;50.108;8.640;2022-09-28T16:49:48;12.60;99.90
26342;DHT22;14054;50.108;8.640;2022-09-28T16:52:15;12.60;99.90
26342;DHT22;14054;50.108;8.640;2022-09-28T16:55:01;12.50;99.90
26342;DHT22;14054;50.108;8.640;2022-09-28T16:57:42;12.50;99.90
26342;DHT22;14054;50.108;8.640;2022-09-28T17:00:21;12.40;99.90
26342;DHT22;14054;50.108;8.640;2022-09-28T17:02:50;12.40;99.90
26342;DHT22;14054;50.108;8.640;2022-09-28T17:05:16;12.40;99.90
26342;DHT22;14054;50.108;8.640;2022-09-28T17:07:42;12.40;99.90
26342;DHT22;14054;50.108;8.640;2022-09-28T17:10:19;12.40;99.90
26342;DHT22;14054;50.108;8.640;2022-09-28T17:12:45;12.40;99.90
26342;DHT22;14054;50.108;8.640;2022-09-28T17:15:11;12.40;99.90
26342;DHT22;14054;50.108;8.640;2022-09-28T17:17:40;12.40;99.90
26342;DHT22;14054;50.108;8.640;2022-09-28T17:20:48;12.40;99.90
26342;DHT22;14054;50.108;8.640;2022-09-28T17:22:54;12.40;99.90
26342;DHT22;14054;50.108;8.640;2022-09-28T17:25:20;12.40;99.90
26342;DHT22;14054;50.108;8.640;2022-09-28T17:27:46;12.40;99.90
26342;DHT22;14054;50.108;8.640;2022-09-28T17:30:13;12.40;99.90
26342;DHT22;14054;50.108;8.640;2022-09-28T17:32:40;12.40;99.90
26342;DHT22;14054;50.108;8.640;2022-09-28T17:35:12;12.30;99.90
26342;DHT22;14054;50.108;8.640;2022-09-28T17:37:37;12.30;99.90
26342;DHT22;14054;50.108;8.640;2022-09-28T17:42:45;12.20;99.90
26342;DHT22;14054;50.108;8.640;2022-09-28T17:45:12;12.20;99.90
26342;DHT22;14054;50.108;8.640;2022-09-28T17:47:38;12.20;99.90
26342;DHT22;14054;50.108;8.640;2022-09-28T17:50:20;12.20;99.90
26342;DHT22;14054;50.108;8.640;2022-09-28T17:52:47;12.20;99.90
26342;DHT22;14054;50.108;8.640;2022-09-28T17:55:16;12.20;99.90
26342;DHT22;14054;50.108;8.640;2022-09-28T17:57:42;12.20;99.90
26342;DHT22;14054;50.108;8.640;2022-09-28T18:00:08;12.20;99.90
26342;DHT22;14054;50.108;8.640;2022-09-28T18:02:34;12.20;99.90
26342;DHT22;14054;50.108;8.640;2022-09-28T18:04:59;12.20;99.90
26342;DHT22;14054;50.108;8.640;2022-09-28T18:07:24;12.10;99.90
26342;DHT22;14054;50.108;8.640;2022-09-28T18:09:52;12.20;99.90
26342;DHT22;14054;50.108;8.640;2022-09-28T18:12:20;12.20;99.90